createdAt,value
2018-06-10T00:00:16.158Z,22.41
2018-06-10T00:01:22.138Z,22.48
2018-06-10T00:02:28.066Z,22.53
2018-06-10T00:03:34.007Z,22.54
2018-06-10T00:04:39.934Z,22.58
2018-06-10T00:05:45.939Z,22.55
2018-06-10T00:06:51.884Z,22.54
2018-06-10T00:07:57.842Z,22.55
2018-06-10T00:09:05.518Z,22.55
2018-06-10T00:10:11.537Z,22.54
2018-06-10T00:11:17.490Z,22.56
2018-06-10T00:12:23.428Z,22.59
2018-06-10T00:13:29.385Z,22.61
2018-06-10T00:14:35.384Z,22.60
2018-06-10T00:15:41.119Z,22.60
2018-06-10T00:16:47.082Z,22.60
2018-06-10T00:17:53.166Z,22.58
2018-06-10T00:18:59.111Z,22.54
2018-06-10T00:20:05.175Z,22.51
2018-06-10T00:21:11.122Z,22.48
2018-06-10T00:22:17.080Z,22.47
2018-06-10T00:23:23.109Z,22.46
2018-06-10T00:24:29.253Z,22.47
2018-06-10T00:25:35.220Z,22.50
2018-06-10T00:26:41.158Z,22.49
2018-06-10T00:27:47.090Z,22.46
2018-06-10T00:28:58.123Z,22.41
2018-06-10T00:30:04.397Z,22.38
2018-06-10T00:31:10.364Z,22.32
2018-06-10T00:32:16.295Z,22.32
2018-06-10T00:33:22.224Z,22.32
2018-06-10T00:34:28.170Z,22.34
2018-06-10T00:35:33.781Z,22.36
2018-06-10T00:36:39.725Z,22.39
2018-06-10T00:37:45.674Z,22.38
2018-06-10T00:38:51.606Z,22.40
2018-06-10T00:39:57.543Z,22.42
2018-06-10T00:41:03.489Z,22.45
2018-06-10T00:42:09.451Z,22.49
2018-06-10T00:43:15.454Z,22.52
2018-06-10T00:44:21.426Z,22.54
2018-06-10T00:45:27.346Z,22.52
2018-06-10T00:46:33.309Z,22.58
2018-06-10T00:47:39.275Z,22.60
2018-06-10T00:48:45.205Z,22.62
2018-06-10T00:49:51.158Z,22.64
2018-06-10T00:50:57.079Z,22.66
2018-06-10T00:52:03.050Z,22.68
2018-06-10T00:53:09.014Z,22.69
2018-06-10T00:54:14.948Z,22.67
2018-06-10T00:55:21.069Z,22.62
2018-06-10T00:56:43.724Z,22.60
2018-06-10T00:57:49.663Z,22.49
2018-06-10T00:58:55.653Z,22.43
2018-06-10T01:00:01.587Z,22.40
2018-06-10T01:01:07.227Z,22.38
2018-06-10T01:02:13.170Z,22.38
2018-06-10T01:03:19.135Z,22.36
2018-06-10T01:04:25.098Z,22.38
2018-06-10T01:05:31.087Z,22.43
2018-06-10T01:06:37.026Z,22.45
2018-06-10T01:07:42.960Z,22.50
2018-06-10T01:08:48.901Z,22.53
2018-06-10T01:09:55.004Z,22.55
2018-06-10T01:11:00.962Z,22.58
2018-06-10T01:12:07.038Z,22.60
2018-06-10T01:13:12.970Z,22.60
2018-06-10T01:14:18.998Z,22.59
2018-06-10T01:15:24.939Z,22.56
2018-06-10T01:16:30.905Z,22.59
2018-06-10T01:17:36.827Z,22.59
2018-06-10T01:18:42.738Z,22.60
2018-06-10T01:19:48.698Z,22.61
2018-06-10T01:20:54.655Z,22.60
2018-06-10T01:22:00.582Z,22.61
2018-06-10T01:23:06.558Z,22.60
2018-06-10T01:24:12.523Z,22.61
2018-06-10T01:25:18.497Z,22.60
2018-06-10T01:26:29.633Z,22.59
2018-06-10T01:27:35.578Z,22.59
2018-06-10T01:28:41.520Z,22.59
2018-06-10T01:29:47.470Z,22.60
2018-06-10T01:30:53.466Z,22.60
2018-06-10T01:31:59.415Z,22.61
2018-06-10T01:33:05.358Z,22.61
2018-06-10T01:34:11.289Z,22.62
2018-06-10T01:35:16.890Z,22.62
2018-06-10T01:36:22.464Z,22.61
2018-06-10T01:37:28.331Z,22.61
2018-06-10T01:38:34.252Z,22.62
2018-06-10T01:39:40.222Z,22.62
2018-06-10T01:40:46.186Z,22.63
2018-06-10T01:41:52.180Z,22.64
2018-06-10T01:42:58.115Z,22.65
2018-06-10T01:44:04.343Z,22.64
2018-06-10T01:45:10.360Z,22.63
2018-06-10T01:46:16.295Z,22.62
2018-06-10T01:47:22.256Z,22.62
2018-06-10T01:48:28.181Z,22.58
2018-06-10T01:49:34.126Z,22.53
2018-06-10T01:50:40.423Z,22.47
2018-06-10T01:51:46.378Z,22.47
2018-06-10T01:52:52.329Z,22.49
2018-06-10T01:53:58.704Z,22.43
2018-06-10T01:55:04.776Z,22.43
2018-06-10T01:56:11.076Z,22.45
2018-06-10T01:57:17.039Z,22.46
2018-06-10T01:58:23.006Z,22.44
2018-06-10T01:59:28.944Z,22.42
2018-06-10T02:00:34.902Z,22.43
2018-06-10T02:01:40.856Z,22.42
2018-06-10T02:02:46.825Z,22.38
2018-06-10T02:03:52.787Z,22.37
2018-06-10T02:04:58.715Z,22.37
2018-06-10T02:06:05.119Z,22.36
2018-06-10T02:07:11.074Z,22.35
2018-06-10T02:08:17.099Z,22.35
2018-06-10T02:09:23.038Z,22.33
2018-06-10T02:10:28.999Z,22.31
2018-06-10T02:11:35.108Z,22.31
2018-06-10T02:12:41.087Z,22.30
2018-06-10T02:13:46.997Z,22.29
2018-06-10T02:14:52.956Z,22.24
2018-06-10T02:15:58.883Z,22.23
2018-06-10T02:17:05.307Z,22.23
2018-06-10T02:18:11.695Z,22.23
2018-06-10T02:19:17.633Z,22.22
2018-06-10T02:20:23.579Z,22.20
2018-06-10T02:21:29.599Z,22.20
2018-06-10T02:22:35.352Z,22.18
2018-06-10T02:23:41.187Z,22.08
2018-06-10T02:24:46.781Z,22.02
2018-06-10T02:25:52.666Z,21.97
2018-06-10T02:26:58.609Z,21.92
2018-06-10T02:28:04.966Z,21.85
2018-06-10T02:29:10.892Z,21.83
2018-06-10T02:30:16.827Z,21.81
2018-06-10T02:31:22.746Z,21.81
2018-06-10T02:32:28.919Z,21.77
2018-06-10T02:33:35.329Z,21.77
2018-06-10T02:34:41.263Z,21.76
2018-06-10T02:35:47.216Z,21.75
2018-06-10T02:36:53.153Z,21.75
2018-06-10T02:37:59.095Z,21.76
2018-06-10T02:39:07.343Z,21.77
2018-06-10T02:40:13.267Z,21.81
2018-06-10T02:41:19.250Z,21.82
2018-06-10T02:42:25.231Z,21.83
2018-06-10T02:43:31.183Z,21.83
2018-06-10T02:44:37.110Z,21.84
2018-06-10T02:45:43.044Z,21.85
2018-06-10T02:46:49.007Z,21.84
2018-06-10T02:47:54.957Z,21.85
2018-06-10T02:49:01.118Z,21.86
2018-06-10T02:50:07.111Z,21.88
2018-06-10T02:51:13.080Z,21.92
2018-06-10T02:52:19.031Z,21.94
2018-06-10T02:53:24.986Z,21.96
2018-06-10T02:54:30.922Z,21.98
2018-06-10T02:55:36.861Z,21.99
2018-06-10T02:56:42.780Z,22.00
2018-06-10T02:57:48.728Z,22.00
2018-06-10T02:58:54.690Z,22.00
2018-06-10T03:00:00.684Z,22.01
2018-06-10T03:01:06.291Z,22.02
2018-06-10T03:02:12.142Z,22.03
2018-06-10T03:03:18.100Z,22.04
2018-06-10T03:04:24.051Z,22.03
2018-06-10T03:05:29.991Z,22.02
2018-06-10T03:06:35.907Z,22.00
2018-06-10T03:07:41.847Z,22.00
2018-06-10T03:08:47.788Z,21.99
2018-06-10T03:09:53.814Z,22.00
2018-06-10T03:10:59.749Z,22.02
2018-06-10T03:12:05.361Z,22.00
2018-06-10T03:13:11.215Z,22.00
2018-06-10T03:14:17.156Z,21.98
2018-06-10T03:15:23.114Z,21.96
2018-06-10T03:16:29.061Z,21.92
2018-06-10T03:17:34.986Z,21.89
2018-06-10T03:18:41.140Z,21.88
2018-06-10T03:19:47.082Z,21.84
2018-06-10T03:20:53.050Z,21.85
2018-06-10T03:21:58.974Z,21.85
2018-06-10T03:23:05.044Z,21.84
2018-06-10T03:24:10.990Z,21.86
2018-06-10T03:25:16.947Z,21.88
2018-06-10T03:26:22.879Z,21.93
2018-06-10T03:27:28.795Z,21.97
2018-06-10T03:28:34.704Z,21.97
2018-06-10T03:29:40.658Z,21.99
2018-06-10T03:30:46.594Z,22.03
2018-06-10T03:31:52.534Z,22.07
2018-06-10T03:32:58.664Z,22.06
2018-06-10T03:34:04.644Z,22.02
2018-06-10T03:35:10.567Z,22.03
2018-06-10T03:36:16.169Z,22.07
2018-06-10T03:37:22.041Z,22.11
2018-06-10T03:38:28.322Z,22.13
2018-06-10T03:39:34.318Z,22.08
2018-06-10T03:40:40.240Z,22.08
2018-06-10T03:41:46.189Z,22.06
2018-06-10T03:42:52.134Z,22.14
2018-06-10T03:43:58.066Z,22.15
2018-06-10T03:45:04.058Z,22.22
2018-06-10T03:46:10.004Z,22.26
2018-06-10T03:47:15.945Z,22.27
2018-06-10T03:48:21.890Z,22.30
2018-06-10T03:49:27.821Z,22.27
2018-06-10T03:50:33.820Z,22.31
2018-06-10T03:51:39.778Z,22.36
2018-06-10T03:52:45.794Z,22.36
2018-06-10T03:53:51.996Z,22.31
2018-06-10T03:54:57.948Z,22.29
2018-06-10T03:56:03.958Z,22.35
2018-06-10T03:57:09.884Z,22.36
2018-06-10T03:58:15.879Z,22.36
2018-06-10T03:59:21.825Z,22.37
2018-06-10T04:00:27.747Z,22.35
2018-06-10T04:01:33.732Z,22.33
2018-06-10T04:02:39.664Z,22.35
2018-06-10T04:03:45.640Z,22.29
2018-06-10T04:04:51.595Z,22.24
2018-06-10T04:05:57.519Z,22.16
2018-06-10T04:07:03.454Z,22.14
2018-06-10T04:08:09.399Z,22.14
2018-06-10T04:09:15.351Z,22.10
2018-06-10T04:10:21.327Z,22.07
2018-06-10T04:11:27.271Z,22.07
2018-06-10T04:12:33.712Z,22.06
2018-06-10T04:13:39.650Z,22.09
2018-06-10T04:14:45.598Z,22.12
2018-06-10T04:15:51.596Z,22.10
2018-06-10T04:16:57.548Z,22.10
2018-06-10T04:18:03.554Z,22.11
2018-06-10T04:19:09.524Z,22.13
2018-06-10T04:20:15.480Z,22.06
2018-06-10T04:21:21.115Z,22.04
2018-06-10T04:22:26.964Z,22.05
2018-06-10T04:23:32.906Z,22.03
2018-06-10T04:24:38.865Z,22.06
2018-06-10T04:25:44.778Z,22.08
2018-06-10T04:26:50.744Z,22.13
2018-06-10T04:27:56.700Z,22.11
2018-06-10T04:29:02.647Z,22.17
2018-06-10T04:30:08.589Z,22.21
2018-06-10T04:31:14.516Z,22.28
2018-06-10T04:32:20.142Z,22.35
2018-06-10T04:33:26.110Z,22.40
2018-06-10T04:34:32.366Z,22.45
2018-06-10T04:35:38.300Z,22.47
2018-06-10T04:36:43.950Z,22.51
2018-06-10T04:37:49.903Z,22.54
2018-06-10T04:38:55.931Z,22.56
2018-06-10T04:40:01.881Z,22.54
2018-06-10T04:41:07.843Z,22.65
2018-06-10T04:42:13.782Z,22.75
2018-06-10T04:43:19.779Z,22.84
2018-06-10T04:44:25.688Z,22.93
2018-06-10T04:45:31.708Z,22.97
2018-06-10T04:46:37.659Z,23.10
2018-06-10T04:47:43.710Z,23.18
2018-06-10T04:48:49.684Z,23.29
2018-06-10T04:49:55.887Z,23.40
2018-06-10T04:51:01.822Z,23.46
2018-06-10T04:52:07.760Z,23.53
2018-06-10T04:53:13.909Z,23.64
2018-06-10T04:54:19.858Z,23.75
2018-06-10T04:55:25.839Z,23.85
2018-06-10T04:56:31.801Z,23.96
2018-06-10T04:57:37.477Z,24.07
2018-06-10T04:58:43.370Z,24.11
2018-06-10T04:59:49.339Z,24.08
2018-06-10T05:00:55.327Z,24.17
2018-06-10T05:02:01.257Z,24.23
2018-06-10T05:03:07.233Z,24.30
2018-06-10T05:04:13.151Z,24.32
2018-06-10T05:05:19.118Z,24.39
2018-06-10T05:06:25.063Z,24.49
2018-06-10T05:07:31.148Z,24.52
2018-06-10T05:08:37.087Z,24.58
2018-06-10T05:09:43.089Z,24.73
2018-06-10T05:10:49.038Z,24.83
2018-06-10T05:11:55.058Z,24.89
2018-06-10T05:13:01.070Z,25.05
2018-06-10T05:14:07.021Z,25.18
2018-06-10T05:15:12.942Z,25.21
2018-06-10T05:16:18.919Z,25.29
2018-06-10T05:17:24.860Z,25.39
2018-06-10T05:18:30.800Z,25.47
2018-06-10T05:19:36.782Z,25.63
2018-06-10T05:20:42.882Z,25.75
2018-06-10T05:21:48.880Z,25.75
2018-06-10T05:22:54.827Z,25.78
2018-06-10T05:24:00.771Z,25.73
2018-06-10T05:25:06.752Z,25.78
2018-06-10T05:26:12.677Z,25.88
2018-06-10T05:27:18.419Z,25.95
2018-06-10T05:28:24.363Z,25.97
2018-06-10T05:29:30.367Z,25.95
2018-06-10T05:30:36.290Z,25.92
2018-06-10T05:31:42.258Z,25.99
2018-06-10T05:32:48.617Z,26.04
2018-06-10T05:33:54.568Z,26.14
2018-06-10T05:35:00.507Z,26.29
2018-06-10T05:36:06.201Z,26.32
2018-06-10T05:37:12.027Z,26.40
2018-06-10T05:38:18.056Z,26.45
2018-06-10T05:39:24.017Z,26.45
2018-06-10T05:40:29.967Z,26.37
2018-06-10T05:41:35.970Z,26.44
2018-06-10T05:42:44.831Z,26.47
2018-06-10T05:43:50.794Z,26.48
2018-06-10T05:44:56.774Z,26.57
2018-06-10T05:46:02.818Z,26.68
2018-06-10T05:47:08.769Z,26.68
2018-06-10T05:48:14.718Z,26.71
2018-06-10T05:49:20.694Z,26.68
2018-06-10T05:50:26.627Z,26.71
2018-06-10T05:51:32.434Z,26.72
2018-06-10T05:52:38.402Z,26.66
2018-06-10T05:53:44.096Z,26.61
2018-06-10T05:54:50.398Z,26.53
2018-06-10T05:55:56.396Z,26.45
2018-06-10T05:57:02.446Z,26.47
2018-06-10T05:58:08.462Z,26.52
2018-06-10T05:59:14.403Z,26.61
2018-06-10T06:00:20.354Z,26.70
2018-06-10T06:01:26.314Z,26.72
2018-06-10T06:02:32.059Z,26.82
2018-06-10T06:03:38.016Z,26.81
2018-06-10T06:04:43.976Z,26.84
2018-06-10T06:05:49.955Z,26.88
2018-06-10T06:06:55.961Z,26.98
2018-06-10T06:08:01.923Z,27.04
2018-06-10T06:09:09.294Z,27.13
2018-06-10T06:10:15.254Z,27.10
2018-06-10T06:11:20.886Z,27.11
2018-06-10T06:12:26.749Z,27.08
2018-06-10T06:13:32.678Z,27.06
2018-06-10T06:14:38.634Z,27.07
2018-06-10T06:15:44.726Z,27.05
2018-06-10T06:16:50.672Z,27.04
2018-06-10T06:17:56.635Z,27.00
2018-06-10T06:19:02.600Z,27.06
2018-06-10T06:20:08.543Z,26.96
2018-06-10T06:21:14.481Z,26.93
2018-06-10T06:22:20.408Z,26.92
2018-06-10T06:23:26.313Z,27.01
2018-06-10T06:24:32.239Z,27.09
2018-06-10T06:25:38.181Z,27.16
2018-06-10T06:26:44.150Z,27.15
2018-06-10T06:27:50.429Z,27.26
2018-06-10T06:28:56.380Z,27.32
2018-06-10T06:30:02.323Z,27.41
2018-06-10T06:31:08.292Z,27.54
2018-06-10T06:32:14.213Z,27.73
2018-06-10T06:33:19.926Z,27.85
2018-06-10T06:34:25.902Z,27.96
2018-06-10T06:35:32.078Z,28.12
2018-06-10T06:36:38.038Z,28.27
2018-06-10T06:37:44.007Z,28.55
2018-06-10T06:38:49.956Z,29.01
2018-06-10T06:39:55.907Z,29.36
2018-06-10T06:41:01.992Z,29.65
2018-06-10T06:42:08.028Z,29.88
2018-06-10T06:43:14.211Z,29.97
2018-06-10T06:44:20.181Z,30.01
2018-06-10T06:45:26.191Z,30.13
2018-06-10T06:46:32.647Z,30.17
2018-06-10T06:47:38.642Z,30.29
2018-06-10T06:48:44.624Z,30.48
2018-06-10T06:49:50.639Z,30.57
2018-06-10T06:50:56.635Z,30.64
2018-06-10T06:52:02.603Z,30.52
2018-06-10T06:53:08.594Z,30.54
2018-06-10T06:54:14.341Z,30.47
2018-06-10T06:55:20.313Z,30.47
2018-06-10T06:56:26.280Z,30.59
2018-06-10T06:57:32.253Z,30.65
2018-06-10T06:58:38.248Z,30.76
2018-06-10T06:59:44.182Z,30.89
2018-06-10T07:00:50.209Z,30.87
2018-06-10T07:01:56.136Z,30.92
2018-06-10T07:03:02.082Z,31.09
2018-06-10T07:04:08.113Z,31.24
2018-06-10T07:05:14.074Z,31.40
2018-06-10T07:06:20.077Z,31.55
2018-06-10T07:07:26.026Z,31.58
2018-06-10T07:08:31.954Z,31.66
2018-06-10T07:09:37.922Z,31.76
2018-06-10T07:10:43.850Z,31.86
2018-06-10T07:11:49.820Z,31.95
2018-06-10T07:12:55.783Z,32.01
2018-06-10T07:14:01.717Z,32.05
2018-06-10T07:15:07.683Z,32.11
2018-06-10T07:16:13.629Z,32.07
2018-06-10T07:17:19.593Z,31.98
2018-06-10T07:18:25.578Z,31.85
2018-06-10T07:19:31.533Z,31.77
2018-06-10T07:20:37.487Z,31.79
2018-06-10T07:21:43.447Z,31.80
2018-06-10T07:22:49.474Z,31.73
2018-06-10T07:23:55.419Z,31.83
2018-06-10T07:25:01.351Z,31.91
2018-06-10T07:26:07.284Z,31.80
2018-06-10T07:27:13.240Z,31.74
2018-06-10T07:28:19.162Z,31.72
2018-06-10T07:29:25.107Z,31.66
2018-06-10T07:30:31.072Z,31.56
2018-06-10T07:31:37.193Z,31.43
2018-06-10T07:32:43.102Z,31.37
2018-06-10T07:33:49.072Z,31.32
2018-06-10T07:34:55.023Z,31.28
2018-06-10T07:36:00.953Z,31.12
2018-06-10T07:37:06.949Z,30.92
2018-06-10T07:38:13.066Z,30.69
2018-06-10T07:39:19.087Z,30.62
2018-06-10T07:40:25.030Z,30.58
2018-06-10T07:41:30.956Z,30.38
2018-06-10T07:42:36.882Z,30.41
2018-06-10T07:43:42.943Z,30.41
2018-06-10T07:44:48.938Z,30.42
2018-06-10T07:45:54.878Z,30.34
2018-06-10T07:47:00.791Z,30.32
2018-06-10T07:48:06.929Z,30.21
2018-06-10T07:49:13.098Z,30.12
2018-06-10T07:50:19.127Z,30.07
2018-06-10T07:51:25.107Z,30.00
2018-06-10T07:52:31.038Z,29.91
2018-06-10T07:53:36.994Z,29.88
2018-06-10T07:54:42.959Z,29.88
2018-06-10T07:55:48.963Z,29.97
2018-06-10T07:56:54.897Z,29.97
2018-06-10T07:58:01.213Z,29.98
2018-06-10T07:59:07.225Z,30.01
2018-06-10T08:00:13.185Z,30.06
2018-06-10T08:01:19.191Z,30.13
2018-06-10T08:02:25.452Z,30.20
2018-06-10T08:03:31.167Z,30.22
2018-06-10T08:04:37.010Z,30.24
2018-06-10T08:05:42.950Z,30.33
2018-06-10T08:06:48.894Z,30.31
2018-06-10T08:07:54.842Z,30.43
2018-06-10T08:09:00.814Z,30.53
2018-06-10T08:10:07.111Z,30.63
2018-06-10T08:11:13.067Z,30.71
2018-06-10T08:12:19.116Z,30.79
2018-06-10T08:13:25.055Z,30.75
2018-06-10T08:14:31.028Z,30.84
2018-06-10T08:15:36.971Z,30.95
2018-06-10T08:16:42.927Z,31.03
2018-06-10T08:17:48.961Z,31.13
2018-06-10T08:18:54.886Z,31.25
2018-06-10T08:20:00.800Z,31.33
2018-06-10T08:21:06.787Z,31.42
2018-06-10T08:22:12.758Z,31.63
2018-06-10T08:23:18.710Z,31.70
2018-06-10T08:24:24.681Z,31.82
2018-06-10T08:25:31.060Z,31.87
2018-06-10T08:26:36.998Z,31.90
2018-06-10T08:27:42.979Z,31.91
2018-06-10T08:28:49.304Z,32.04
2018-06-10T08:29:55.246Z,32.12
2018-06-10T08:31:01.172Z,32.17
2018-06-10T08:32:07.106Z,32.11
2018-06-10T08:33:13.092Z,32.18
2018-06-10T08:34:19.043Z,32.26
2018-06-10T08:35:24.991Z,32.36
2018-06-10T08:36:31.130Z,32.45
2018-06-10T08:37:37.052Z,32.54
2018-06-10T08:38:43.008Z,32.66
2018-06-10T08:39:48.958Z,32.75
2018-06-10T08:40:54.914Z,32.83
2018-06-10T08:42:00.882Z,32.86
2018-06-10T08:43:06.819Z,32.91
2018-06-10T08:44:12.854Z,32.94
2018-06-10T08:45:18.798Z,32.94
2018-06-10T08:46:24.932Z,32.95
2018-06-10T08:47:30.902Z,32.88
2018-06-10T08:48:36.870Z,32.80
2018-06-10T08:49:42.799Z,32.75
2018-06-10T08:50:48.774Z,32.69
2018-06-10T08:51:54.722Z,32.69
2018-06-10T08:53:01.139Z,32.66
2018-06-10T08:54:07.178Z,32.68
2018-06-10T08:55:13.180Z,32.77
2018-06-10T08:56:19.175Z,32.85
2018-06-10T08:57:25.129Z,32.87
2018-06-10T08:58:31.107Z,32.92
2018-06-10T08:59:37.091Z,32.99
2018-06-10T09:00:43.101Z,33.00
2018-06-10T09:01:49.117Z,32.91
2018-06-10T09:02:55.117Z,32.70
2018-06-10T09:04:01.375Z,32.67
2018-06-10T09:05:07.702Z,32.65
2018-06-10T09:06:13.647Z,32.61
2018-06-10T09:07:19.675Z,32.62
2018-06-10T09:08:25.683Z,32.67
2018-06-10T09:09:32.487Z,32.66
2018-06-10T09:10:38.580Z,32.66
2018-06-10T09:11:46.182Z,32.72
2018-06-10T09:12:52.263Z,32.77
2018-06-10T09:13:58.212Z,32.86
2018-06-10T09:15:06.471Z,32.93
2018-06-10T09:16:12.429Z,32.92
2018-06-10T09:17:18.348Z,32.87
2018-06-10T09:18:25.829Z,32.81
2018-06-10T09:19:32.025Z,32.73
2018-06-10T09:20:38.647Z,32.64
2018-06-10T09:21:47.620Z,32.64
2018-06-10T09:22:54.375Z,32.75
2018-06-10T09:24:00.452Z,32.79
2018-06-10T09:25:07.090Z,32.79
2018-06-10T09:26:13.195Z,32.68
2018-06-10T09:27:19.602Z,32.57
2018-06-10T09:28:27.170Z,32.46
2018-06-10T09:29:33.353Z,32.32
2018-06-10T09:30:41.605Z,32.32
2018-06-10T09:31:48.909Z,32.32
2018-06-10T09:32:54.937Z,32.27
2018-06-10T09:34:01.369Z,32.30
2018-06-10T09:35:07.744Z,32.23
2018-06-10T09:36:15.740Z,32.24
2018-06-10T09:37:24.729Z,32.27
2018-06-10T09:38:32.067Z,32.11
2018-06-10T09:39:41.189Z,31.93
2018-06-10T09:40:47.476Z,31.79
2018-06-10T09:41:53.825Z,31.71
2018-06-10T09:42:59.791Z,31.70
2018-06-10T09:44:06.142Z,31.66
2018-06-10T09:45:13.182Z,31.54
2018-06-10T09:46:19.120Z,31.50
2018-06-10T09:47:25.310Z,31.36
2018-06-10T09:48:32.094Z,31.35
2018-06-10T09:49:39.855Z,31.44
2018-06-10T09:50:48.046Z,31.36
2018-06-10T09:51:55.562Z,31.30
2018-06-10T09:53:02.436Z,31.29
2018-06-10T09:54:09.437Z,31.30
2018-06-10T09:55:17.791Z,31.29
2018-06-10T09:56:25.817Z,31.25
2018-06-10T09:57:34.054Z,31.33
2018-06-10T09:58:41.591Z,31.41
2018-06-10T09:59:47.981Z,31.50
2018-06-10T10:00:55.995Z,31.52
2018-06-10T10:02:03.358Z,31.40
2018-06-10T10:03:11.235Z,31.31
2018-06-10T10:04:20.333Z,31.28
2018-06-10T10:05:27.439Z,31.35
2018-06-10T10:06:35.451Z,31.36
2018-06-10T10:07:43.472Z,31.39
2018-06-10T10:08:53.648Z,31.46
2018-06-10T10:10:01.589Z,31.57
2018-06-10T10:11:08.807Z,31.63
2018-06-10T10:12:15.971Z,31.59
2018-06-10T10:13:23.449Z,31.54
2018-06-10T10:14:33.272Z,31.54
2018-06-10T10:15:42.596Z,31.57
2018-06-10T10:16:50.386Z,31.61
2018-06-10T10:17:57.555Z,31.64
2018-06-10T10:19:04.809Z,31.64
2018-06-10T10:20:11.867Z,31.56
2018-06-10T10:21:18.731Z,31.58
2018-06-10T10:22:26.147Z,31.64
2018-06-10T10:23:34.362Z,31.66
2018-06-10T10:24:41.762Z,31.68
2018-06-10T10:25:48.858Z,31.61
2018-06-10T10:26:56.344Z,31.63
2018-06-10T10:28:03.554Z,31.80
2018-06-10T10:29:10.589Z,31.89
2018-06-10T10:30:18.599Z,31.95
2018-06-10T10:31:25.910Z,32.03
2018-06-10T10:32:33.820Z,32.06
2018-06-10T10:33:41.036Z,32.22
2018-06-10T10:34:48.388Z,32.37
2018-06-10T10:35:55.323Z,32.43
2018-06-10T10:37:02.110Z,32.46
2018-06-10T10:38:11.164Z,32.58
2018-06-10T10:39:20.135Z,32.66
2018-06-10T10:40:28.297Z,32.63
2018-06-10T10:41:35.541Z,32.65
2018-06-10T10:42:45.795Z,32.70
2018-06-10T10:43:53.388Z,32.69
2018-06-10T10:45:00.878Z,32.74
2018-06-10T10:46:08.994Z,32.62
2018-06-10T10:47:16.502Z,32.62
2018-06-10T10:48:26.387Z,32.63
2018-06-10T10:49:34.551Z,32.63
2018-06-10T10:50:41.966Z,32.62
2018-06-10T10:51:50.556Z,32.64
2018-06-10T10:53:01.401Z,32.73
2018-06-10T10:54:11.308Z,32.81
2018-06-10T10:55:19.648Z,32.97
2018-06-10T10:56:27.564Z,33.19
2018-06-10T10:57:35.007Z,33.23
2018-06-10T10:58:43.492Z,33.26
2018-06-10T10:59:52.252Z,33.30
2018-06-10T11:01:07.089Z,33.42
2018-06-10T11:02:16.350Z,33.45
2018-06-10T11:03:24.026Z,33.45
2018-06-10T11:04:32.142Z,33.42
2018-06-10T11:05:41.959Z,33.59
2018-06-10T11:06:50.553Z,33.64
2018-06-10T11:07:58.944Z,33.78
2018-06-10T11:09:09.721Z,33.80
2018-06-10T11:10:16.940Z,33.87
2018-06-10T11:11:24.395Z,34.00
2018-06-10T11:12:32.315Z,34.03
2018-06-10T11:13:40.347Z,34.12
2018-06-10T11:14:47.866Z,34.07
2018-06-10T11:15:55.153Z,34.10
2018-06-10T11:17:02.567Z,34.22
2018-06-10T11:18:11.945Z,34.42
2018-06-10T11:19:22.191Z,34.53
2018-06-10T11:20:29.522Z,34.64
2018-06-10T11:21:36.746Z,34.70
2018-06-10T11:22:43.910Z,34.69
2018-06-10T11:23:51.079Z,34.64
2018-06-10T11:24:58.555Z,34.55
2018-06-10T11:26:05.987Z,34.46
2018-06-10T11:27:12.848Z,34.37
2018-06-10T11:28:19.715Z,34.21
2018-06-10T11:29:27.191Z,33.99
2018-06-10T11:30:34.648Z,33.90
2018-06-10T11:31:41.808Z,33.68
2018-06-10T11:32:49.721Z,33.47
2018-06-10T11:33:56.921Z,33.42
2018-06-10T11:35:06.194Z,33.37
2018-06-10T11:36:13.738Z,33.35
2018-06-10T11:37:20.786Z,33.24
2018-06-10T11:38:27.984Z,33.24
2018-06-10T11:39:37.119Z,33.24
2018-06-10T11:40:44.188Z,33.22
2018-06-10T11:41:51.433Z,33.21
2018-06-10T11:42:58.454Z,33.20
2018-06-10T11:44:07.238Z,33.20
2018-06-10T11:45:14.512Z,33.23
2018-06-10T11:46:23.763Z,33.26
2018-06-10T11:47:30.901Z,33.39
2018-06-10T11:48:39.961Z,33.44
2018-06-10T11:49:47.671Z,33.53
2018-06-10T11:50:56.932Z,33.60
2018-06-10T11:52:05.007Z,33.69
2018-06-10T11:53:14.395Z,33.73
2018-06-10T11:54:21.606Z,33.80
2018-06-10T11:55:30.620Z,33.84
2018-06-10T11:56:38.333Z,33.98
2018-06-10T11:57:46.492Z,34.02
2018-06-10T11:58:54.220Z,34.07
2018-06-10T12:00:02.022Z,34.10
2018-06-10T12:01:09.633Z,34.06
2018-06-10T12:02:17.929Z,34.02
2018-06-10T12:03:26.790Z,33.97
2018-06-10T12:04:38.304Z,33.89
2018-06-10T12:05:46.902Z,33.85
2018-06-10T12:06:55.159Z,33.80
2018-06-10T12:08:03.231Z,33.81
2018-06-10T12:09:10.599Z,33.72
2018-06-10T12:10:18.550Z,33.72
2018-06-10T12:11:25.753Z,33.73
2018-06-10T12:12:34.090Z,33.72
2018-06-10T12:13:41.437Z,33.81
2018-06-10T12:14:49.442Z,33.88
2018-06-10T12:15:56.402Z,33.88
2018-06-10T12:17:04.241Z,33.85
2018-06-10T12:18:11.470Z,33.81
2018-06-10T12:19:19.416Z,33.79
2018-06-10T12:20:29.037Z,33.79
2018-06-10T12:21:36.179Z,33.77
2018-06-10T12:22:44.305Z,33.86
2018-06-10T12:23:51.947Z,33.99
2018-06-10T12:25:01.055Z,34.10
2018-06-10T12:26:08.553Z,34.12
2018-06-10T12:27:17.036Z,34.09
2018-06-10T12:28:25.517Z,34.12
2018-06-10T12:29:34.196Z,34.10
2018-06-10T12:30:41.512Z,34.20
2018-06-10T12:31:49.278Z,34.14
2018-06-10T12:32:56.968Z,34.15
2018-06-10T12:34:04.805Z,34.02
2018-06-10T12:35:11.940Z,33.80
2018-06-10T12:36:20.543Z,33.51
2018-06-10T12:37:27.714Z,33.40
2018-06-10T12:38:35.259Z,33.29
2018-06-10T12:39:42.372Z,33.19
2018-06-10T12:40:50.010Z,33.07
2018-06-10T12:41:58.655Z,33.00
2018-06-10T12:43:05.870Z,32.87
2018-06-10T12:44:17.343Z,32.69
2018-06-10T12:45:25.709Z,32.67
2018-06-10T12:46:32.956Z,32.63
2018-06-10T12:47:41.731Z,32.62
2018-06-10T12:48:48.794Z,32.57
2018-06-10T12:49:57.451Z,32.53
2018-06-10T12:51:04.735Z,32.45
2018-06-10T12:52:12.503Z,32.40
2018-06-10T12:53:20.261Z,32.33
2018-06-10T12:54:27.360Z,32.31
2018-06-10T12:55:35.193Z,32.23
2018-06-10T12:56:42.486Z,32.25
2018-06-10T12:57:49.607Z,32.21
2018-06-10T12:58:58.178Z,32.20
2018-06-10T13:00:07.366Z,32.08
2018-06-10T13:01:15.368Z,32.10
2018-06-10T13:02:24.800Z,32.05
2018-06-10T13:03:34.370Z,31.98
2018-06-10T13:04:42.515Z,31.89
2018-06-10T13:05:49.619Z,31.95
2018-06-10T13:06:57.669Z,31.92
2018-06-10T13:08:04.706Z,31.86
2018-06-10T13:09:12.265Z,31.80
2018-06-10T13:10:20.414Z,31.76
2018-06-10T13:11:27.487Z,31.74
2018-06-10T13:12:34.601Z,31.78
2018-06-10T13:13:41.691Z,31.76
2018-06-10T13:14:50.079Z,31.76
2018-06-10T13:15:58.606Z,31.72
2018-06-10T13:17:05.701Z,31.65
2018-06-10T13:18:13.831Z,31.65
2018-06-10T13:19:21.746Z,31.63
2018-06-10T13:20:28.737Z,31.58
2018-06-10T13:21:35.839Z,31.60
2018-06-10T13:22:43.079Z,31.73
2018-06-10T13:23:50.572Z,31.89
2018-06-10T13:24:58.476Z,31.93
2018-06-10T13:26:07.436Z,31.90
2018-06-10T13:27:17.446Z,31.89
2018-06-10T13:28:24.678Z,31.84
2018-06-10T13:29:31.485Z,31.78
2018-06-10T13:30:38.946Z,31.71
2018-06-10T13:31:46.460Z,31.63
2018-06-10T13:32:54.683Z,31.58
2018-06-10T13:34:02.145Z,31.52
2018-06-10T13:35:09.782Z,31.58
2018-06-10T13:36:19.277Z,31.54
2018-06-10T13:37:26.402Z,31.52
2018-06-10T13:38:36.974Z,31.53
2018-06-10T13:39:44.201Z,31.50
2018-06-10T13:40:52.354Z,31.47
2018-06-10T13:42:04.112Z,31.39
2018-06-10T13:43:11.396Z,31.38
2018-06-10T13:44:22.601Z,31.41
2018-06-10T13:45:30.760Z,31.34
2018-06-10T13:46:38.640Z,31.25
2018-06-10T13:47:45.949Z,31.18
2018-06-10T13:48:53.228Z,31.13
2018-06-10T13:50:00.604Z,31.03
2018-06-10T13:51:09.313Z,30.93
2018-06-10T13:52:18.463Z,30.81
2018-06-10T13:53:25.719Z,30.69
2018-06-10T13:54:32.921Z,30.64
2018-06-10T13:55:40.402Z,30.55
2018-06-10T13:56:48.441Z,30.49
2018-06-10T13:57:55.885Z,30.48
2018-06-10T13:59:04.379Z,30.52
2018-06-10T14:00:11.338Z,30.58
2018-06-10T14:01:19.651Z,30.61
2018-06-10T14:02:26.535Z,30.60
2018-06-10T14:03:34.922Z,30.60
2018-06-10T14:04:42.479Z,30.55
2018-06-10T14:05:50.579Z,30.49
2018-06-10T14:06:57.708Z,30.48
2018-06-10T14:08:04.961Z,30.45
2018-06-10T14:09:18.268Z,30.42
2018-06-10T14:10:25.948Z,30.38
2018-06-10T14:11:35.071Z,30.35
2018-06-10T14:12:43.083Z,30.31
2018-06-10T14:13:50.362Z,30.32
2018-06-10T14:14:57.564Z,30.28
2018-06-10T14:16:04.488Z,30.27
2018-06-10T14:17:11.672Z,30.26
2018-06-10T14:18:18.810Z,30.30